Time;durP1;ratioP1;P1;durP2;ratioP2;P2;SDS_P1;SDS_P2;PMS_P1;PMS_P2;Temp;Humidity;BMP_temperature;BMP_pressure;BME280_temperature;BME280_humidity;BME280_pressure;Samples;Min_cycle;Max_cycle;Signal;HPM_P1;HPM_P2
2021/09/22 00:02:36;;;;;;;0.82;0.25;;;;;;;19.16;59.68;102424.66;5119623;28;20008;-74
2021/09/22 00:05:03;;;;;;;0.40;0.30;;;;;;;19.15;60.23;102428.38;5082669;28;20050;-73
2021/09/22 00:07:30;;;;;;;0.50;0.20;;;;;;;19.16;58.29;102430.09;5094243;28;20408;-73
2021/09/22 00:09:59;;;;;;;0.80;0.30;;;;;;;19.14;61.62;102426.63;5075636;28;20020;-73
2021/09/22 00:12:25;;;;;;;0.30;0.30;;;;;;;19.12;59.91;102423.19;5094438;28;20031;-73
2021/09/22 00:14:50;;;;;;;0.30;0.30;;;;;;;19.10;60.78;102422.47;5075993;28;20393;-73
2021/09/22 00:17:16;;;;;;;0.47;0.40;;;;;;;19.08;60.16;102421.75;5094278;28;20020;-73
2021/09/22 00:19:43;;;;;;;0.57;0.22;;;;;;;19.10;59.67;102417.00;5094066;28;20023;-73
2021/09/22 00:22:09;;;;;;;0.40;0.30;;;;;;;19.09;60.37;102412.56;5093983;28;20016;-73
2021/09/22 00:24:51;;;;;;;1.50;0.60;;;;;;;19.10;59.04;102422.47;5096927;28;20347;-73
2021/09/22 00:28:09;;;;;;;0.50;0.40;;;;;;;19.06;59.61;102418.28;5099044;28;20009;-74
2021/09/22 00:30:44;;;;;;;0.45;0.30;;;;;;;19.03;60.83;102418.56;5093989;28;20055;-73
2021/09/22 00:33:10;;;;;;;0.60;0.32;;;;;;;19.04;58.66;102421.16;5094127;28;20024;-74
2021/09/22 00:35:37;;;;;;;0.85;0.45;;;;;;;19.05;59.90;102422.03;5093865;28;20071;-73
2021/09/22 00:38:06;;;;;;;0.20;0.20;;;;;;;19.04;59.79;102426.63;5093991;28;20467;-73
2021/09/22 00:40:32;;;;;;;0.55;0.45;;;;;;;19.11;59.58;102418.72;5094803;28;20024;-70
2021/09/22 00:42:58;;;;;;;0.28;0.22;;;;;;;19.08;60.27;102422.59;5098327;28;20462;-73
2021/09/22 00:45:26;;;;;;;0.28;0.28;;;;;;;19.04;58.65;102421.16;5093912;28;20035;-73
2021/09/22 00:47:51;;;;;;;0.45;0.43;;;;;;;19.04;59.16;102423.88;5075801;28;20061;-73
2021/09/22 00:50:23;;;;;;;0.75;0.30;;;;;;;19.02;59.32;102420.44;5118799;28;20005;-75
2021/09/22 00:52:50;;;;;;;0.40;0.30;;;;;;;19.01;60.30;102409.69;5096769;28;20064;-73
2021/09/22 00:55:18;;;;;;;0.73;0.40;;;;;;;19.04;60.66;102420.31;5075519;28;20193;-73
2021/09/22 00:57:55;;;;;;;0.75;0.43;;;;;;;19.01;60.72;102423.31;5093822;28;20102;-73
2021/09/22 01:00:22;;;;;;;0.38;0.38;;;;;;;18.97;59.79;102416.38;5075570;28;20020;-73
2021/09/22 01:03:08;;;;;;;0.50;0.50;;;;;;;18.99;60.58;102422.59;5098837;28;20038;-74
2021/09/22 01:05:33;;;;;;;0.20;0.20;;;;;;;19.02;59.65;102425.03;5093660;28;20028;-74
2021/09/22 01:07:59;;;;;;;0.35;0.30;;;;;;;18.99;59.39;102434.34;5093598;28;20068;-73
2021/09/22 01:10:26;;;;;;;0.50;0.50;;;;;;;18.98;59.74;102434.47;5093646;28;20020;-73
2021/09/22 01:12:52;;;;;;;1.38;0.40;;;;;;;19.00;60.22;102436.06;5093545;28;20024;-73
2021/09/22 01:18:47;;;;;;;0.52;0.30;;;;;;;18.93;58.83;102435.75;5106324;28;20101;-73
2021/09/22 01:21:20;;;;;;;0.65;0.47;;;;;;;18.92;58.97;102428.56;5093471;28;20021;-73
2021/09/22 01:23:55;;;;;;;0.35;0.35;;;;;;;18.96;60.70;102428.28;5097831;28;20099;-73
2021/09/22 01:26:21;;;;;;;0.30;0.20;;;;;;;18.98;59.92;102423.56;5097480;28;20054;-74
2021/09/22 01:29:00;;;;;;;2.30;0.55;;;;;;;18.92;60.74;102423.13;5079090;28;20085;-74
2021/09/22 01:31:27;;;;;;;0.30;0.20;;;;;;;18.97;60.01;102430.00;5097089;28;20028;-74
2021/09/22 01:33:54;;;;;;;0.75;0.40;;;;;;;18.94;60.54;102426.56;5097110;28;20378;-74
2021/09/22 01:36:19;;;;;;;1.58;0.50;;;;;;;18.96;59.42;102422.84;5096930;28;20051;-74
2021/09/22 01:38:45;;;;;;;0.20;0.20;;;;;;;18.97;59.00;102421.84;5096879;28;20413;-74
2021/09/22 01:41:12;;;;;;;0.50;0.40;;;;;;;18.96;59.33;102425.56;5096870;28;20026;-74
2021/09/22 01:43:39;;;;;;;0.30;0.30;;;;;;;18.91;60.54;102425.97;5115992;28;20430;-74
2021/09/22 01:46:08;;;;;;;0.40;0.40;;;;;;;18.87;58.87;102416.34;5100366;28;20020;-74
2021/09/22 01:48:34;;;;;;;0.45;0.40;;;;;;;18.89;59.08;102423.41;5096852;28;20024;-74
2021/09/22 01:51:02;;;;;;;0.47;0.30;;;;;;;18.94;60.77;102429.28;5096595;28;20092;-74
2021/09/22 01:53:28;;;;;;;0.22;0.20;;;;;;;18.90;60.32;102424.25;5096661;28;20023;-73
2021/09/22 01:55:56;;;;;;;0.95;0.85;;;;;;;18.91;60.10;102425.97;5096488;28;20515;-74
2021/09/22 01:58:22;;;;;;;0.77;0.30;;;;;;;18.89;59.06;102428.84;5096174;28;20031;-73
2021/09/22 02:00:50;;;;;;;0.40;0.30;;;;;;;18.84;60.26;102428.41;5096701;28;20478;-74
2021/09/22 02:03:16;;;;;;;0.38;0.30;;;;;;;18.89;61.70;102428.84;5096455;28;20062;-73
2021/09/22 02:05:43;;;;;;;0.30;0.30;;;;;;;18.92;59.56;102428.56;5101633;28;20020;-74
2021/09/22 02:08:09;;;;;;;0.77;0.40;;;;;;;18.85;59.99;102430.13;5096210;28;20462;-73
2021/09/22 02:10:59;;;;;;;0.10;0.10;;;;;;;18.91;60.05;102426.84;5107233;28;20038;-74
2021/09/22 02:13:25;;;;;;;0.10;0.10;;;;;;;18.90;61.32;102413.34;5118925;28;20032;-73
2021/09/22 02:15:51;;;;;;;1.00;0.63;;;;;;;18.87;60.55;102417.22;5096038;28;20106;-74
2021/09/22 02:18:16;;;;;;;0.35;0.35;;;;;;;18.86;59.62;102422.81;5096117;28;20455;-73
2021/09/22 02:20:43;;;;;;;0.40;0.20;;;;;;;18.82;60.44;102422.22;5096000;28;20030;-74
2021/09/22 02:23:09;;;;;;;0.45;0.30;;;;;;;18.81;60.46;102423.22;5076764;28;20024;-74
2021/09/22 02:25:35;;;;;;;0.38;0.38;;;;;;;18.81;60.51;102425.06;5080692;28;20398;-73
2021/09/22 02:28:01;;;;;;;1.33;0.45;;;;;;;18.86;59.10;102420.09;5075488;28;20099;-74
2021/09/22 02:30:26;;;;;;;0.50;0.30;;;;;;;18.86;59.76;102428.25;5075594;28;20551;-73
2021/09/22 02:32:52;;;;;;;0.32;0.30;;;;;;;18.88;58.80;102427.13;5075233;28;20412;-74
2021/09/22 02:35:17;;;;;;;0.30;0.17;;;;;;;18.89;58.34;102426.13;5074742;28;20056;-73
2021/09/22 02:37:43;;;;;;;0.82;0.28;;;;;;;18.83;59.53;102423.94;5075224;28;20713;-74
2021/09/22 02:40:13;;;;;;;0.55;0.55;;;;;;;18.81;60.98;102420.50;5080224;28;20081;-73
2021/09/22 02:42:45;;;;;;;0.55;0.30;;;;;;;18.76;60.04;102406.41;5100322;28;20024;-74
2021/09/22 02:45:11;;;;;;;0.22;0.20;;;;;;;18.82;59.63;102407.75;5091992;28;20488;-73
2021/09/22 02:47:38;;;;;;;0.93;0.43;;;;;;;18.80;60.87;102418.75;5075247;28;20025;-74
2021/09/22 02:50:04;;;;;;;0.75;0.13;;;;;;;18.79;60.06;102411.56;5079305;28;20032;-73
2021/09/22 02:52:30;;;;;;;0.93;0.30;;;;;;;18.77;59.87;102364.53;5075089;28;20078;-73
2021/09/22 02:54:56;;;;;;;0.20;0.20;;;;;;;18.77;60.83;102366.41;5074938;28;20032;-73
2021/09/22 02:57:22;;;;;;;0.25;0.20;;;;;;;18.79;59.23;102350.78;5075030;28;20040;-73
2021/09/22 02:59:47;;;;;;;0.10;0.10;;;;;;;18.78;59.22;102442.56;5056832;28;20020;-73
2021/09/22 03:02:50;;;;;;;0.20;0.20;;;;;;;18.79;59.54;102422.47;5074638;28;20024;-73
2021/09/22 03:05:15;;;;;;;0.10;0.10;;;;;;;18.78;60.26;102431.66;5074857;28;20028;-73
2021/09/22 03:07:42;;;;;;;0.40;0.20;;;;;;;18.82;58.62;102429.53;5078434;28;20111;-73
2021/09/22 03:10:07;;;;;;;0.35;0.20;;;;;;;18.78;59.90;102428.94;5056710;28;20029;-73
2021/09/22 03:12:33;;;;;;;1.58;0.40;;;;;;;18.78;59.07;102412.56;5074655;28;20029;-74
2021/09/22 03:15:00;;;;;;;0.85;0.10;;;;;;;18.79;60.41;102419.75;5092457;28;20055;-73
2021/09/22 03:17:27;;;;;;;0.30;0.20;;;;;;;18.81;58.52;102411.44;5077647;28;20066;-73
2021/09/22 03:19:53;;;;;;;0.20;0.10;;;;;;;18.81;59.90;102414.16;5074387;28;20035;-73
2021/09/22 03:22:18;;;;;;;0.45;0.20;;;;;;;18.76;59.57;102405.53;5074642;28;20013;-73
2021/09/22 03:24:44;;;;;;;0.40;0.20;;;;;;;18.76;60.32;102406.41;5074676;28;20043;-74
2021/09/22 03:27:10;;;;;;;0.15;0.15;;;;;;;18.73;60.96;102406.69;5076258;28;20032;-71
2021/09/22 03:29:36;;;;;;;0.20;0.13;;;;;;;18.71;59.90;102405.97;5078560;28;20027;-73
2021/09/22 03:32:01;;;;;;;0.10;0.10;;;;;;;18.79;59.57;102403.41;5056375;28;20027;-73
2021/09/22 03:34:26;;;;;;;0.15;0.10;;;;;;;18.76;60.81;102400.94;5073446;28;20051;-73
2021/09/22 03:36:52;;;;;;;0.45;0.30;;;;;;;18.75;60.79;102398.38;5056251;28;20127;-73
2021/09/22 03:39:17;;;;;;;0.28;0.20;;;;;;;18.76;59.95;102405.53;5074233;28;20016;-74
2021/09/22 03:41:42;;;;;;;0.20;0.20;;;;;;;18.73;60.04;102412.13;5074230;28;20062;-73
2021/09/22 03:44:08;;;;;;;0.38;0.20;;;;;;;18.79;60.08;102408.84;5074179;28;20032;-74
2021/09/22 03:46:42;;;;;;;0.35;0.10;;;;;;;18.72;59.96;102404.97;5055625;28;20029;-73
2021/09/22 03:49:08;;;;;;;;;;;;;;;18.71;60.46;102411.41;5075351;28;20024;-72
2021/09/22 03:51:34;;;;;;;0.80;0.20;;;;;;;18.71;60.63;102408.69;5078665;28;19935;-73
2021/09/22 03:53:59;;;;;;;0.95;0.20;;;;;;;18.76;58.91;102405.53;5073931;28;20464;-72
2021/09/22 03:56:27;;;;;;;0.32;0.20;;;;;;;18.80;59.62;102396.94;5074196;28;20024;-73
2021/09/22 03:58:52;;;;;;;0.25;0.20;;;;;;;18.73;60.92;102393.06;5073739;28;20029;-73
2021/09/22 04:01:23;;;;;;;0.93;0.10;;;;;;;18.71;60.40;102391.47;5055994;28;20017;-73
2021/09/22 04:03:49;;;;;;;0.47;0.20;;;;;;;18.84;60.63;102384.81;5074158;28;20028;-73
2021/09/22 04:06:27;;;;;;;0.10;0.10;;;;;;;19.04;58.50;102376.69;5073749;28;20027;-73
2021/09/22 04:08:52;;;;;;;0.20;0.20;;;;;;;19.17;59.26;102380.03;5074218;28;20467;-73
2021/09/22 04:11:19;;;;;;;0.22;0.20;;;;;;;19.24;58.94;102373.84;5073500;28;20074;-74
2021/09/22 04:13:45;;;;;;;0.30;0.30;;;;;;;19.33;58.66;102383.06;5076079;28;20066;-73
2021/09/22 04:16:18;;;;;;;0.57;0.10;;;;;;;19.41;59.79;102385.09;5080770;28;20056;-73
2021/09/22 04:18:44;;;;;;;0.30;0.08;;;;;;;19.48;58.24;102386.22;5073859;28;20070;-73
2021/09/22 04:21:09;;;;;;;0.50;0.22;;;;;;;19.49;59.56;102380.66;5073407;28;20040;-72
2021/09/22 04:23:36;;;;;;;0.10;0.10;;;;;;;19.52;60.11;102374.91;5073685;28;20048;-73
2021/09/22 04:26:02;;;;;;;0.40;0.20;;;;;;;19.58;59.34;102369.91;5073682;28;20024;-73
2021/09/22 04:28:27;;;;;;;0.40;0.10;;;;;;;19.59;60.49;102368.91;5073369;28;20056;-72
2021/09/22 04:30:54;;;;;;;0.10;0.10;;;;;;;19.68;59.87;102373.53;5073466;28;20067;-73
2021/09/22 04:33:52;;;;;;;0.10;0.10;;;;;;;19.68;60.28;102371.66;5077805;28;20013;-73
2021/09/22 04:36:18;;;;;;;1.30;0.20;;;;;;;19.73;61.85;102368.50;5073369;28;20044;-73
2021/09/22 04:38:44;;;;;;;0.30;0.20;;;;;;;19.69;61.75;102367.91;5073386;28;20033;-73
2021/09/22 04:41:09;;;;;;;0.13;0.13;;;;;;;19.72;60.82;102364.03;5073835;28;20091;-73
2021/09/22 04:43:55;;;;;;;0.88;0.20;;;;;;;19.71;61.46;102365.03;5078915;28;20043;-73
2021/09/22 04:46:22;;;;;;;0.63;0.20;;;;;;;19.73;61.78;102363.88;5066934;28;20480;-73
2021/09/22 04:48:47;;;;;;;0.30;0.20;;;;;;;19.80;59.71;102358.69;5072857;28;20112;-72
2021/09/22 04:51:19;;;;;;;0.52;0.20;;;;;;;19.81;61.30;102365.88;5073115;28;20108;-73
2021/09/22 04:53:46;;;;;;;0.52;0.20;;;;;;;19.80;61.02;102359.56;5073275;28;20024;-72
2021/09/22 04:56:11;;;;;;;0.30;0.15;;;;;;;19.81;60.24;102360.41;5077385;28;20030;-73
2021/09/22 04:58:37;;;;;;;0.38;0.15;;;;;;;19.78;61.33;102360.72;5079923;28;20028;-73
2021/09/22 05:01:02;;;;;;;0.93;0.20;;;;;;;19.84;60.80;102368.34;5076809;28;20445;-73
2021/09/22 05:03:29;;;;;;;0.55;0.20;;;;;;;19.88;60.87;102360.72;5059219;28;20431;-73
2021/09/22 05:05:58;;;;;;;0.20;0.20;;;;;;;19.82;59.82;102363.03;5076939;28;20036;-73
2021/09/22 05:08:23;;;;;;;0.22;0.20;;;;;;;19.80;61.24;102358.69;5076843;28;20024;-73
2021/09/22 05:10:48;;;;;;;0.32;0.10;;;;;;;19.87;61.27;102361.72;5076837;28;20033;-72
2021/09/22 05:13:16;;;;;;;0.85;0.10;;;;;;;19.85;60.71;102359.16;5076837;28;20021;-73
2021/09/22 05:15:41;;;;;;;0.52;0.20;;;;;;;19.85;61.01;102353.69;5076684;28;20348;-73
2021/09/22 05:18:08;;;;;;;0.60;0.20;;;;;;;19.92;61.42;102356.69;5076842;28;20032;-73
2021/09/22 05:20:33;;;;;;;1.75;0.20;;;;;;;19.91;60.64;102353.09;5076769;28;20066;-72
2021/09/22 05:23:01;;;;;;;0.13;0.00;;;;;;;19.92;62.07;102356.69;5080846;28;20017;-74
2021/09/22 05:25:26;;;;;;;0.73;0.10;;;;;;;19.94;61.39;102349.22;5076387;28;20020;-73
2021/09/22 05:27:52;;;;;;;0.77;0.17;;;;;;;19.91;62.68;102350.38;5089015;28;20027;-73
2021/09/22 05:30:20;;;;;;;1.27;0.10;;;;;;;19.90;61.33;102335.00;5096907;28;20054;-74
2021/09/22 05:32:45;;;;;;;0.20;0.10;;;;;;;19.90;61.77;102332.28;5096549;28;20424;-73
2021/09/22 05:35:10;;;;;;;0.20;0.20;;;;;;;19.95;61.55;102329.97;5096646;28;20039;-74
2021/09/22 05:37:36;;;;;;;0.43;0.28;;;;;;;19.95;61.19;102340.88;5096639;28;20032;-73
2021/09/22 05:40:02;;;;;;;0.60;0.30;;;;;;;19.93;61.84;102342.91;5107620;28;20032;-74
2021/09/22 05:42:29;;;;;;;0.45;0.20;;;;;;;19.98;64.19;102337.00;5121932;28;20016;-73
2021/09/22 05:44:54;;;;;;;1.23;0.17;;;;;;;19.93;62.56;102331.97;5097108;28;20024;-74
2021/09/22 05:47:20;;;;;;;0.57;0.20;;;;;;;19.97;63.01;102333.41;5096597;28;20103;-74
2021/09/22 05:49:45;;;;;;;0.93;0.32;;;;;;;19.96;62.16;102330.81;5096631;28;20031;-73
2021/09/22 05:52:12;;;;;;;0.88;0.20;;;;;;;19.99;62.03;102336.88;5096117;28;20052;-74
2021/09/22 05:54:37;;;;;;;0.52;0.10;;;;;;;19.98;61.98;102337.00;5096474;28;20475;-74
2021/09/22 05:57:03;;;;;;;1.13;0.20;;;;;;;20.00;62.87;102337.72;5095546;28;20027;-74
2021/09/22 05:59:30;;;;;;;0.10;0.10;;;;;;;19.98;62.54;102340.56;5082487;28;20017;-74
2021/09/22 06:01:57;;;;;;;0.43;0.20;;;;;;;19.98;61.02;102332.38;5088035;28;20409;-74
2021/09/22 06:04:23;;;;;;;0.43;0.10;;;;;;;20.02;62.42;102347.50;5076110;28;20380;-74
2021/09/22 06:06:48;;;;;;;0.32;0.10;;;;;;;20.06;61.16;102343.47;5071954;28;20024;-73
2021/09/22 06:09:15;;;;;;;0.80;0.20;;;;;;;20.00;62.57;102344.06;5095326;28;20466;-74
2021/09/22 06:11:40;;;;;;;0.88;0.20;;;;;;;20.00;61.91;102345.91;5104232;28;20094;-73
2021/09/22 06:14:13;;;;;;;0.68;0.52;;;;;;;19.95;62.10;102345.47;5096068;28;20047;-75
2021/09/22 06:16:39;;;;;;;0.20;0.20;;;;;;;20.00;62.75;102338.59;5095522;28;20047;-74
2021/09/22 06:19:09;;;;;;;0.63;0.20;;;;;;;20.11;61.95;102330.22;5094700;28;20022;-74
2021/09/22 06:21:50;;;;;;;0.17;0.17;;;;;;;20.05;62.17;102330.81;5081233;28;20052;-74
2021/09/22 06:24:19;;;;;;;0.35;0.20;;;;;;;20.07;61.81;102344.31;5085556;28;20024;-75
2021/09/22 06:26:45;;;;;;;0.30;0.20;;;;;;;20.05;63.42;102351.78;5085931;28;20024;-73
2021/09/22 06:29:13;;;;;;;0.40;0.30;;;;;;;20.08;61.39;102338.72;5091424;28;20020;-74
2021/09/22 06:31:39;;;;;;;1.20;0.30;;;;;;;20.04;62.60;102336.44;5067162;28;20024;-74
2021/09/22 06:34:07;;;;;;;0.28;0.15;;;;;;;20.14;61.11;102340.84;5095556;28;20043;-74
2021/09/22 06:36:32;;;;;;;0.52;0.20;;;;;;;20.23;60.98;102347.28;5077642;28;20052;-74
2021/09/22 06:38:59;;;;;;;0.22;0.20;;;;;;;20.18;61.37;102340.56;5076278;28;20082;-74
2021/09/22 06:41:29;;;;;;;0.30;0.10;;;;;;;20.13;62.16;102344.56;5057357;28;20406;-74
2021/09/22 06:44:08;;;;;;;0.82;0.28;;;;;;;20.16;62.08;102356.25;5110360;28;20016;-74
2021/09/22 06:46:33;;;;;;;0.70;0.20;;;;;;;20.19;60.64;102347.75;5098861;28;20062;-74
2021/09/22 06:49:00;;;;;;;0.73;0.20;;;;;;;20.20;60.72;102354.94;5095093;28;20027;-74
2021/09/22 06:51:25;;;;;;;0.65;0.20;;;;;;;20.19;61.41;102348.63;5091227;28;20020;-70
2021/09/22 06:53:50;;;;;;;0.10;0.10;;;;;;;20.22;64.42;102351.03;5090992;28;20024;-68
2021/09/22 06:56:15;;;;;;;0.65;0.20;;;;;;;20.21;64.40;102351.19;5093804;28;20523;-68
2021/09/22 06:58:42;;;;;;;1.45;0.38;;;;;;;20.29;63.29;102351.28;5075363;28;20024;-71
2021/09/22 07:01:08;;;;;;;0.40;0.20;;;;;;;20.38;63.83;102348.56;5094083;28;20035;-75
2021/09/22 07:03:34;;;;;;;4.70;0.65;;;;;;;20.36;62.34;102339.66;5077349;28;20051;-74
2021/09/22 07:05:59;;;;;;;1.02;0.20;;;;;;;20.39;61.21;102341.22;5092278;28;20074;-74
2021/09/22 07:08:25;;;;;;;0.20;0.20;;;;;;;20.35;61.91;102331.59;5094640;28;20107;-75
2021/09/22 07:11:01;;;;;;;1.90;0.20;;;;;;;20.37;60.65;102341.38;5098646;28;20055;-74
2021/09/22 07:13:26;;;;;;;0.57;0.10;;;;;;;20.36;62.01;102333.31;5095230;28;20065;-74
2021/09/22 07:15:52;;;;;;;0.55;0.10;;;;;;;20.28;61.67;102325.84;5091712;28;20103;-75
2021/09/22 07:18:20;;;;;;;0.32;0.20;;;;;;;20.35;60.34;102326.13;5074408;28;20375;-74
2021/09/22 07:20:48;;;;;;;0.28;0.20;;;;;;;20.39;60.15;102322.97;5073845;28;20026;-76
2021/09/22 07:23:21;;;;;;;0.40;0.10;;;;;;;20.31;61.08;102321.97;5074510;28;20020;-75
2021/09/22 07:25:57;;;;;;;0.40;0.20;;;;;;;20.31;61.42;102330.16;5087550;28;20027;-75
2021/09/22 07:28:23;;;;;;;0.85;0.20;;;;;;;20.32;60.52;102321.84;5075709;28;20031;-74
2021/09/22 07:30:49;;;;;;;0.10;0.10;;;;;;;20.26;61.30;102325.16;5094701;28;20107;-75
2021/09/22 07:33:14;;;;;;;0.88;0.20;;;;;;;20.23;61.55;102327.31;5113691;22;20099;-73
2021/09/22 07:35:39;;;;;;;1.50;0.30;;;;;;;20.29;60.68;102330.31;5059135;28;20041;-75
2021/09/22 07:38:05;;;;;;;0.20;0.10;;;;;;;20.27;61.44;102323.28;5036494;28;20029;-74
2021/09/22 07:40:44;;;;;;;0.52;0.10;;;;;;;20.31;61.30;102324.69;5054395;28;20475;-75
2021/09/22 07:43:49;;;;;;;0.55;0.20;;;;;;;20.25;61.88;102319.84;5052763;28;20537;-74
2021/09/22 07:46:14;;;;;;;0.45;0.10;;;;;;;20.24;62.74;102305.31;5035816;28;20033;-75
2021/09/22 07:48:39;;;;;;;0.57;0.10;;;;;;;20.18;63.30;102307.78;5033585;28;20037;-74
2021/09/22 07:51:06;;;;;;;0.95;0.30;;;;;;;20.18;61.94;102307.78;5016764;28;20036;-75
2021/09/22 07:53:31;;;;;;;0.10;0.10;;;;;;;20.17;62.39;102300.63;5016581;28;20047;-74
2021/09/22 07:55:57;;;;;;;0.25;0.10;;;;;;;20.13;62.88;102300.88;5040248;28;20041;-75
2021/09/22 07:58:23;;;;;;;0.10;0.00;;;;;;;20.12;62.81;102310.09;5036639;28;20065;-74
2021/09/22 08:01:04;;;;;;;0.63;0.10;;;;;;;20.09;62.00;102304.94;5034144;28;20076;-74
2021/09/22 08:03:30;;;;;;;0.20;0.17;;;;;;;20.13;61.99;102306.34;5034189;28;20024;-75
2021/09/22 08:06:05;;;;;;;0.45;0.20;;;;;;;20.13;62.47;102306.34;5034139;28;20026;-76
2021/09/22 08:08:30;;;;;;;0.10;0.10;;;;;;;20.09;63.11;102313.13;5034092;28;20052;-74
2021/09/22 08:10:56;;;;;;;0.38;0.20;;;;;;;20.16;62.08;102315.28;5032991;28;20025;-75
2021/09/22 08:13:30;;;;;;;0.20;0.10;;;;;;;20.16;62.35;102320.75;5058921;28;20009;-75
2021/09/22 08:15:58;;;;;;;0.30;0.20;;;;;;;20.16;62.12;102309.81;5037875;28;20381;-75
2021/09/22 08:18:25;;;;;;;1.63;0.50;;;;;;;20.18;61.54;102307.78;5017857;28;20040;-75
2021/09/22 08:20:52;;;;;;;0.28;0.05;;;;;;;20.16;63.14;102310.69;5033948;28;20025;-74
2021/09/22 08:23:17;;;;;;;0.30;0.30;;;;;;;20.12;62.93;102310.09;5034017;28;20021;-75
2021/09/22 08:25:44;;;;;;;0.30;0.30;;;;;;;20.18;63.05;102313.25;5033930;28;20026;-74
2021/09/22 08:28:20;;;;;;;0.10;0.08;;;;;;;20.19;63.70;102304.06;5034012;28;20384;-75
2021/09/22 08:30:46;;;;;;;0.22;0.10;;;;;;;20.16;63.02;102315.28;5033945;28;20507;-74
2021/09/22 08:33:14;;;;;;;0.15;0.10;;;;;;;20.12;62.40;102310.09;5037271;28;20029;-75
2021/09/22 08:35:39;;;;;;;0.82;0.32;;;;;;;20.18;61.64;102305.06;4998458;28;20034;-75
2021/09/22 08:38:05;;;;;;;0.88;0.20;;;;;;;20.18;62.65;102302.34;5000699;28;20034;-76
2021/09/22 08:40:37;;;;;;;0.20;0.13;;;;;;;20.17;62.68;102306.09;4997418;28;20053;-75
2021/09/22 08:43:03;;;;;;;0.08;0.08;;;;;;;20.20;61.92;102294.84;4998361;28;20019;-74
2021/09/22 08:45:30;;;;;;;0.98;0.22;;;;;;;20.23;62.06;102295.41;5013681;28;20024;-75
2021/09/22 08:47:58;;;;;;;0.28;0.10;;;;;;;20.27;61.86;102290.50;5007141;28;20386;-74
2021/09/22 08:50:25;;;;;;;0.20;0.10;;;;;;;20.23;61.81;102286.34;4998433;28;20525;-75
2021/09/22 08:52:50;;;;;;;0.38;0.20;;;;;;;20.21;62.20;102280.19;4998265;28;20026;-74
2021/09/22 08:55:18;;;;;;;0.30;0.10;;;;;;;20.19;62.13;102287.66;5020238;28;20030;-75
2021/09/22 08:57:44;;;;;;;1.00;0.25;;;;;;;20.29;61.62;102280.28;4996971;28;20033;-74
2021/09/22 09:00:11;;;;;;;0.43;0.43;;;;;;;20.18;62.08;102269.56;4998160;28;20034;-75
2021/09/22 09:02:39;;;;;;;0.38;0.10;;;;;;;20.20;61.10;102271.13;4998138;28;20069;-74
2021/09/22 09:05:10;;;;;;;0.45;0.20;;;;;;;20.23;62.25;102267.25;4996724;28;20023;-76
2021/09/22 09:07:55;;;;;;;0.30;0.20;;;;;;;20.21;61.69;102269.25;4998111;28;20022;-74
2021/09/22 09:10:34;;;;;;;;;;;;;;;20.21;61.01;102261.06;4997328;28;20033;-75
2021/09/22 09:13:26;;;;;;;0.25;0.10;;;;;;;20.24;61.22;102252.56;5001781;28;19902;-75
2021/09/22 09:19:23;;;;;;;0.73;0.20;;;;;;;20.24;62.05;102249.84;4951987;29;20051;-74
2021/09/22 09:22:13;;;;;;;0.20;0.10;;;;;;;20.27;61.58;102233.16;4937707;29;20027;-75
2021/09/22 09:24:44;;;;;;;0.43;0.13;;;;;;;20.25;62.74;102238.78;4937637;29;20036;-74
2021/09/22 09:27:19;;;;;;;0.20;0.10;;;;;;;20.20;64.37;102234.78;4937522;29;20051;-75
2021/09/22 09:29:44;;;;;;;0.95;0.30;;;;;;;20.25;61.20;102240.63;4937638;29;20027;-74
2021/09/22 09:32:13;;;;;;;0.10;0.10;;;;;;;20.27;62.21;102246.81;4937757;29;20047;-76
2021/09/22 09:34:56;;;;;;;0.10;0.10;;;;;;;20.41;60.75;102238.16;4940312;29;20054;-74
2021/09/22 09:37:39;;;;;;;1.73;0.20;;;;;;;20.28;63.20;102232.13;4937639;29;20040;-76
2021/09/22 09:40:28;;;;;;;0.22;0.10;;;;;;;20.41;60.22;102221.75;4921471;29;20140;-74
2021/09/22 09:42:57;;;;;;;0.28;0.15;;;;;;;20.44;60.95;102218.72;4934414;29;20043;-75
2021/09/22 09:45:44;;;;;;;0.93;0.15;;;;;;;20.50;59.52;102214.53;4937210;29;20040;-74
2021/09/22 09:48:22;;;;;;;1.45;0.20;;;;;;;20.47;59.53;102199.28;4920858;29;20026;-75
2021/09/22 09:50:59;;;;;;;0.30;0.10;;;;;;;20.39;60.64;102196.44;4923819;29;20096;-76
2021/09/22 09:53:30;;;;;;;0.50;0.20;;;;;;;20.34;60.68;102194.19;4985642;28;20042;-74
2021/09/22 09:56:02;;;;;;;0.10;0.00;;;;;;;20.33;62.87;102197.06;4997127;28;20026;-75
2021/09/22 09:58:48;;;;;;;0.22;0.20;;;;;;;20.22;63.27;102194.53;4998116;28;20035;-75
2021/09/22 10:01:20;;;;;;;0.32;0.10;;;;;;;20.25;60.96;102183.28;4996635;28;20121;-75
2021/09/22 10:03:46;;;;;;;0.28;0.25;;;;;;;20.27;63.00;102181.25;4995781;28;20026;-74
2021/09/22 10:06:14;;;;;;;0.50;0.10;;;;;;;20.25;63.13;102181.41;4996928;28;20030;-76
2021/09/22 10:08:40;;;;;;;1.35;0.10;;;;;;;20.29;62.61;102173.78;4996897;28;20440;-75
2021/09/22 10:11:08;;;;;;;0.10;0.10;;;;;;;20.25;62.94;102183.28;4996792;28;20030;-76
2021/09/22 10:13:33;;;;;;;0.80;0.20;;;;;;;20.26;61.30;102179.53;4996974;28;20033;-75
2021/09/22 10:16:01;;;;;;;0.20;0.20;;;;;;;20.20;62.42;102175.56;4997048;28;20026;-74
2021/09/22 10:18:26;;;;;;;0.55;0.10;;;;;;;20.31;62.07;102178.06;5006313;28;20081;-75
2021/09/22 10:20:53;;;;;;;0.30;0.15;;;;;;;20.22;62.77;102168.06;4996497;28;20101;-74
2021/09/22 10:23:23;;;;;;;0.40;0.22;;;;;;;20.31;61.94;102166.28;4996768;28;20033;-75
2021/09/22 10:25:49;;;;;;;0.65;0.10;;;;;;;20.38;63.18;102161.94;4996826;28;20031;-75
2021/09/22 10:28:15;;;;;;;0.47;0.15;;;;;;;20.36;60.58;102169.44;4996531;28;20026;-75
2021/09/22 10:30:45;;;;;;;0.38;0.20;;;;;;;20.35;62.21;102157.66;4996661;28;20481;-75
2021/09/22 10:33:29;;;;;;;0.20;0.10;;;;;;;20.35;61.51;102173.19;4996354;28;20030;-76
2021/09/22 10:35:59;;;;;;;0.32;0.10;;;;;;;20.34;62.27;102160.53;5035842;28;20049;-74
2021/09/22 10:38:29;;;;;;;0.10;0.10;;;;;;;20.30;62.92;102159.09;5043954;28;20041;-75
2021/09/22 10:41:00;;;;;;;0.63;0.17;;;;;;;20.33;61.88;102156.09;5035970;28;20025;-74
2021/09/22 10:43:45;;;;;;;0.73;0.10;;;;;;;20.29;61.74;102163.72;5035693;28;20048;-76
2021/09/22 10:46:16;;;;;;;0.20;0.20;;;;;;;20.37;61.65;102160.22;5035600;28;20025;-75
2021/09/22 10:49:35;;;;;;;0.20;0.13;;;;;;;20.37;61.29;102154.75;5058058;28;20010;-75
2021/09/22 10:52:01;;;;;;;0.55;0.10;;;;;;;20.34;62.17;102145.00;5035341;28;20030;-75
2021/09/22 10:54:28;;;;;;;0.43;0.20;;;;;;;20.35;62.03;102145.88;5017418;28;20052;-75
2021/09/22 10:56:59;;;;;;;0.08;0.03;;;;;;;20.51;60.05;102148.81;5035459;28;20049;-75
2021/09/22 10:59:27;;;;;;;0.10;0.10;;;;;;;20.56;60.03;102135.53;5034833;28;20384;-74
2021/09/22 11:01:54;;;;;;;0.20;0.20;;;;;;;20.45;60.33;102134.91;5033631;28;20021;-74
2021/09/22 11:04:22;;;;;;;0.20;0.10;;;;;;;20.41;60.94;102150.75;5038618;28;20037;-75
2021/09/22 11:06:54;;;;;;;0.10;0.10;;;;;;;20.37;59.72;102127.44;5017216;28;20033;-75
2021/09/22 11:09:23;;;;;;;0.57;0.22;;;;;;;20.28;58.35;102144.75;5034960;28;20025;-74
2021/09/22 11:11:59;;;;;;;0.57;0.08;;;;;;;20.33;59.52;102147.91;5033651;28;20405;-75
2021/09/22 11:14:37;;;;;;;0.00;0.00;;;;;;;20.16;60.84;102148.72;5038527;28;20057;-72
2021/09/22 11:17:10;;;;;;;1.17;0.10;;;;;;;20.04;58.86;102148.91;5031357;28;20379;-74
2021/09/22 11:19:50;;;;;;;0.30;0.20;;;;;;;20.03;59.16;102158.13;5037962;28;20036;-74
2021/09/22 11:22:29;;;;;;;0.43;0.10;;;;;;;20.19;59.78;102140.22;5033084;28;20091;-75
2021/09/22 11:25:03;;;;;;;0.20;0.10;;;;;;;20.20;58.49;102125.56;5059029;28;20009;-76
2021/09/22 11:27:31;;;;;;;3.00;0.15;;;;;;;20.21;58.10;102128.13;5045001;28;20021;-75
2021/09/22 11:30:00;;;;;;;0.20;0.10;;;;;;;20.19;58.14;102118.38;5027751;28;20025;-76
2021/09/22 11:32:34;;;;;;;0.20;0.10;;;;;;;20.22;58.45;102107.13;5025013;28;20068;-75
2021/09/22 11:35:07;;;;;;;1.08;0.28;;;;;;;20.21;57.82;102100.81;5039945;28;20054;-75
2021/09/22 11:37:44;;;;;;;0.00;0.00;;;;;;;20.18;57.19;102111.19;5017164;28;20666;-75
2021/09/22 11:40:22;;;;;;;0.25;0.17;;;;;;;20.18;57.59;102108.47;5032704;28;20128;-75
2021/09/22 11:43:12;;;;;;;0.20;0.20;;;;;;;20.21;56.77;102103.56;5033666;28;20020;-75
2021/09/22 11:45:57;;;;;;;0.93;0.15;;;;;;;20.18;58.99;102095.66;5017973;28;20064;-74